Raleigh, NC (27676)

10:44 AM EDT on August 21, 2017 (GMT -0400)
Five Points/Hayes Barton | | Change Station
Active Advisory: Special Statement

Elev 315 ft 35.81 °N, 78.64 °W | Updated 11 seconds ago

Clear
Clear
87.1 °F
Feels Like 93 °F
N
2.0
Wind Variable Wind from South
Gusts 4.5 mph

Today
High -- | Low -- °F
--% Chance of Precip.
Yesterday
High -- | Low -- °F
Precip. -- in
Pressure 30.22 in
Visibility 10.0 miles
Clouds Few 3000 ft
Few 12000 ft
Scattered Clouds 25000 ft
Heat Index 93 °F
Dew Point 71 °F
Humidity 59%
Rainfall 0.00 in
Snow Depth Not available.
6:38 AM 7:56 PM
Waning Crescent, 0% visible
METAR KRDU 211351Z 13003KT 10SM FEW030 FEW120 SCT250 30/22 A3023 RMK AO2 SLP231 T03000222
Pressure 30.22 in
Visibility 10.0 miles
Clouds Few 3000 ft
Few 12000 ft
Scattered Clouds 25000 ft
Heat Index 93 °F
Dew Point 71 °F
Humidity 59%
Rainfall 0.00 in
Snow Depth Not available.
6:38 AM 7:56 PM
Waning Crescent, 0% visible
METAR KRDU 211351Z 13003KT 10SM FEW030 FEW120 SCT250 30/22 A3023 RMK AO2 SLP231 T03000222

Get Your Daily Forecast Email!

Thanks for signing up!

Be on the lookout for a verification email in your inbox.

You'll start receiving severe weather alerts in your inbox..

×

10-Day Weather Forecast

Almanac

Astronomy

Aug. 21, 2017 Rise Set
Actual Time
Civil Twilight
Nautical Twilight
Astronomical Twilight
Moon
Length of Visible Light
Length of Day
Tomorrow will be .
, % of the Moon is Illuminated

Today's Extremes

State Highs State Lows

Community

WunderPhotos

Category 6

Welcome to Category 6. This is the collective home for Weather Underground's featured writeups by Dr. Jeff Masters (right), Bob Henson (left), Chris Burt, and other regular contributors.

Nearby

Air Quality

  Air Quality AQ Index Pollutant
Not available.

Snow Depth

Station Depth Elevation

Earthquake Activity

City Distance Mag. Time & Date
Minimum magnitude displayed is 2.5.

Coastal Water Temperatures

Place Temperature

Stations

Nearby Weather Stations

Station Location Temp. Windchill Dew Point Humidity Wind Precip. Elev Updated Type
                   

Watches & Warnings

Special Statement
Issued: 9:14 AM EDT Aug. 21, 2017 – National Weather Service

... Areas of dense fog will slowly lift this morning...

Areas of dense fog with visibilities less than mile, and locally
less than a half mile, across the sandhills and the coastal plain
will improve between 9 and 11am. The fog will lift into a low
overcast and then erode during the course of the morning. The
clouds will be stubborn to burn off in a few spots but should
give way to intervals of sunshine before the solar eclipse this
afternoon.

Be on the lookout for sudden changes in visibility. Visibility
can drop quickly over short distances, especially near rivers,
lakes and other low-lying areas.


Blaes